createdAt,value
2018-05-29T00:00:03.182Z,100751.73
2018-05-29T00:02:31.453Z,100742.23
2018-05-29T00:04:59.734Z,100742.02
2018-05-29T00:07:28.018Z,100743.84
2018-05-29T00:09:56.294Z,100740.58
2018-05-29T00:12:24.585Z,100738.20
2018-05-29T00:14:52.862Z,100735.27
2018-05-29T00:17:21.149Z,100734.81
2018-05-29T00:19:49.425Z,100738.20
2018-05-29T00:22:17.704Z,100742.19
2018-05-29T00:24:45.989Z,100740.25
2018-05-29T00:27:14.265Z,100731.58
2018-05-29T00:29:42.555Z,100728.20
2018-05-29T00:32:10.830Z,100726.84
2018-05-29T00:34:39.522Z,100720.53
2018-05-29T00:37:07.785Z,100726.05
2018-05-29T00:39:36.079Z,100719.98
2018-05-29T00:42:04.682Z,100720.47
2018-05-29T00:44:32.968Z,100716.73
2018-05-29T00:47:01.257Z,100712.76
2018-05-29T00:49:29.537Z,100713.64
2018-05-29T00:51:58.265Z,100711.87
2018-05-29T00:54:26.566Z,100699.83
2018-05-29T00:56:54.847Z,100704.89
2018-05-29T00:59:23.135Z,100711.88
2018-05-29T01:01:51.407Z,100704.73
2018-05-29T01:04:19.694Z,100705.17
2018-05-29T01:06:47.981Z,100699.01
2018-05-29T01:09:16.257Z,100699.46
2018-05-29T01:11:44.530Z,100690.30
2018-05-29T01:14:12.821Z,100697.02
2018-05-29T01:16:41.096Z,100705.53
2018-05-29T01:19:09.369Z,100703.05
2018-05-29T01:21:37.658Z,100702.34
2018-05-29T01:24:05.938Z,100708.66
2018-05-29T01:26:34.227Z,100702.69
2018-05-29T01:29:02.517Z,100702.17
2018-05-29T01:31:30.818Z,100697.03
2018-05-29T01:33:59.097Z,100695.33
2018-05-29T01:36:27.370Z,100702.95
2018-05-29T01:38:55.676Z,100709.89
2018-05-29T01:41:23.941Z,100703.03
2018-05-29T01:43:52.226Z,100707.91
2018-05-29T01:46:20.506Z,100702.82
2018-05-29T01:48:48.805Z,100703.23
2018-05-29T01:51:17.087Z,100701.78
2018-05-29T01:53:45.369Z,100701.19
2018-05-29T01:56:13.649Z,100703.39
2018-05-29T01:58:41.940Z,100691.53
2018-05-29T02:01:10.221Z,100698.16
2018-05-29T02:03:38.510Z,100693.72
2018-05-29T02:06:06.798Z,100699.16
2018-05-29T02:08:35.073Z,100689.87
2018-05-29T02:11:03.349Z,100687.30
2018-05-29T02:13:31.629Z,100688.92
2018-05-29T02:16:00.209Z,100688.58
2018-05-29T02:18:28.482Z,100679.78
2018-05-29T02:20:56.765Z,100678.18
2018-05-29T02:23:25.057Z,100671.28
2018-05-29T02:25:53.339Z,100675.72
2018-05-29T02:28:21.621Z,100673.91
2018-05-29T02:30:49.897Z,100666.27
2018-05-29T02:33:18.189Z,100668.80
2018-05-29T02:35:46.494Z,100670.45
2018-05-29T02:38:14.789Z,100663.33
2018-05-29T02:40:43.079Z,100671.10
2018-05-29T02:43:11.354Z,100671.47
2018-05-29T02:45:39.651Z,100666.28
2018-05-29T02:48:07.921Z,100675.48
2018-05-29T02:50:36.214Z,100672.30
2018-05-29T02:53:04.499Z,100671.53
2018-05-29T02:55:32.781Z,100674.21
2018-05-29T02:58:01.077Z,100670.70
2018-05-29T03:00:29.358Z,100666.98
2018-05-29T03:02:57.638Z,100665.98
2018-05-29T03:05:25.917Z,100660.84
2018-05-29T03:07:54.216Z,100658.95
2018-05-29T03:10:22.506Z,100668.64
2018-05-29T03:12:50.803Z,100665.26
2018-05-29T03:15:19.085Z,100665.99
2018-05-29T03:17:47.395Z,100665.55
2018-05-29T03:20:15.679Z,100663.45
2018-05-29T03:22:43.973Z,100659.06
2018-05-29T03:25:12.249Z,100656.50
2018-05-29T03:27:40.525Z,100656.86
2018-05-29T03:30:08.812Z,100655.34
2018-05-29T03:32:37.086Z,100658.41
2018-05-29T03:35:05.379Z,100663.75
2018-05-29T03:37:33.664Z,100660.68
2018-05-29T03:40:01.946Z,100656.86
2018-05-29T03:42:30.229Z,100662.84
2018-05-29T03:44:58.525Z,100664.16
2018-05-29T03:47:26.806Z,100672.78
2018-05-29T03:49:55.466Z,100674.28
2018-05-29T03:52:23.745Z,100679.34
2018-05-29T03:54:52.026Z,100680.47
2018-05-29T03:57:20.313Z,100678.81
2018-05-29T03:59:49.461Z,100686.14
2018-05-29T04:02:17.753Z,100695.59
2018-05-29T04:04:46.034Z,100688.95
2018-05-29T04:07:14.323Z,100688.02
2018-05-29T04:09:42.606Z,100694.45
2018-05-29T04:12:10.903Z,100689.47
2018-05-29T04:14:39.179Z,100689.72
2018-05-29T04:17:07.471Z,100699.74
2018-05-29T04:19:35.753Z,100702.97
2018-05-29T04:22:04.050Z,100703.22
2018-05-29T04:24:32.353Z,100708.03
2018-05-29T04:27:00.833Z,100705.84
2018-05-29T04:29:29.127Z,100697.78
2018-05-29T04:31:57.403Z,100685.78
2018-05-29T04:34:25.698Z,100695.98
2018-05-29T04:36:53.993Z,100703.37
2018-05-29T04:39:22.287Z,100703.50
2018-05-29T04:41:50.561Z,100702.72
2018-05-29T04:44:18.864Z,100705.70
2018-05-29T04:46:47.138Z,100705.45
2018-05-29T04:49:15.418Z,100699.06
2018-05-29T04:51:43.708Z,100697.81
2018-05-29T04:54:11.993Z,100694.80
2018-05-29T04:56:40.295Z,100701.73
2018-05-29T04:59:08.565Z,100695.64
2018-05-29T05:01:36.850Z,100693.26
2018-05-29T05:04:05.150Z,100691.86
2018-05-29T05:06:33.433Z,100692.62
2018-05-29T05:09:01.747Z,100694.33
2018-05-29T05:11:30.014Z,100696.44
2018-05-29T05:13:58.291Z,100696.23
2018-05-29T05:16:26.574Z,100694.02
2018-05-29T05:18:54.886Z,100693.38
2018-05-29T05:21:23.157Z,100689.52
2018-05-29T05:23:51.446Z,100691.34
2018-05-29T05:26:19.735Z,100691.40
2018-05-29T05:28:48.023Z,100679.66
2018-05-29T05:31:16.297Z,100689.83
2018-05-29T05:33:44.596Z,100682.33
2018-05-29T05:36:12.873Z,100683.89
2018-05-29T05:38:41.463Z,100674.53
2018-05-29T05:41:09.737Z,100675.72
2018-05-29T05:43:38.010Z,100664.10
2018-05-29T05:46:06.331Z,100667.03
2018-05-29T05:48:34.581Z,100670.37
2018-05-29T05:51:02.868Z,100671.11
2018-05-29T05:53:31.143Z,100664.59
2018-05-29T05:55:59.441Z,100666.78
2018-05-29T05:58:27.739Z,100672.78
2018-05-29T06:00:56.006Z,100676.28
2018-05-29T06:03:24.288Z,100675.80
2018-05-29T06:05:52.569Z,100676.76
2018-05-29T06:08:20.857Z,100673.22
2018-05-29T06:10:49.143Z,100681.92
2018-05-29T06:13:17.430Z,100674.55
2018-05-29T06:15:45.710Z,100675.11
2018-05-29T06:18:13.998Z,100676.06
2018-05-29T06:20:42.273Z,100671.26
2018-05-29T06:23:10.562Z,100661.63
2018-05-29T06:25:38.853Z,100664.25
2018-05-29T06:28:07.141Z,100661.16
2018-05-29T06:30:35.426Z,100660.37
2018-05-29T06:33:03.714Z,100661.55
2018-05-29T06:35:31.989Z,100673.82
2018-05-29T06:38:00.282Z,100672.94
2018-05-29T06:40:29.474Z,100672.70
2018-05-29T06:42:57.757Z,100669.12
2018-05-29T06:45:26.045Z,100668.23
2018-05-29T06:47:54.327Z,100669.94
2018-05-29T06:50:22.613Z,100668.98
2018-05-29T06:52:50.898Z,100668.38
2018-05-29T06:55:19.182Z,100663.77
2018-05-29T06:57:47.468Z,100673.72
2018-05-29T07:00:15.753Z,100669.09
2018-05-29T07:02:44.034Z,100669.16
2018-05-29T07:05:12.341Z,100662.69
2018-05-29T07:07:40.620Z,100666.47
2018-05-29T07:10:08.910Z,100659.98
2018-05-29T07:12:37.201Z,100660.16
2018-05-29T07:15:05.474Z,100664.33
2018-05-29T07:17:33.762Z,100665.55
2018-05-29T07:20:02.038Z,100668.13
2018-05-29T07:22:30.330Z,100668.13
2018-05-29T07:24:58.609Z,100671.45
2018-05-29T07:27:26.905Z,100662.32
2018-05-29T07:29:55.191Z,100665.55
2018-05-29T07:32:23.834Z,100650.56
2018-05-29T07:34:52.106Z,100648.80
2018-05-29T07:37:20.386Z,100649.59
2018-05-29T07:39:48.697Z,100646.75
2018-05-29T07:42:16.953Z,100645.73
2018-05-29T07:44:45.249Z,100641.77
2018-05-29T07:47:13.530Z,100641.45
2018-05-29T07:49:41.825Z,100633.92
2018-05-29T07:52:10.110Z,100621.22
2018-05-29T07:54:38.399Z,100625.84
2018-05-29T07:57:06.670Z,100621.34
2018-05-29T07:59:34.957Z,100613.69
2018-05-29T08:02:03.237Z,100618.23
2018-05-29T08:04:31.514Z,100622.44
2018-05-29T08:06:59.805Z,100622.70
2018-05-29T08:09:28.090Z,100614.55
2018-05-29T08:11:56.378Z,100623.52
2018-05-29T08:14:24.666Z,100621.79
2018-05-29T08:16:52.961Z,100625.03
2018-05-29T08:19:21.310Z,100621.93
2018-05-29T08:21:49.594Z,100615.70
2018-05-29T08:24:17.882Z,100610.16
2018-05-29T08:26:46.184Z,100602.61
2018-05-29T08:29:14.466Z,100604.61
2018-05-29T08:31:42.742Z,100601.70
2018-05-29T08:34:11.034Z,100595.92
2018-05-29T08:36:39.314Z,100593.22
2018-05-29T08:39:07.628Z,100598.97
2018-05-29T08:41:35.911Z,100595.24
2018-05-29T08:44:04.198Z,100602.49
2018-05-29T08:46:32.479Z,100599.83
2018-05-29T08:49:00.770Z,100596.40
2018-05-29T08:51:29.141Z,100597.36
2018-05-29T08:53:57.434Z,100594.80
2018-05-29T08:56:25.710Z,100589.91
2018-05-29T08:58:54.009Z,100586.28
2018-05-29T09:01:22.305Z,100590.27
2018-05-29T09:03:50.598Z,100584.95
2018-05-29T09:06:18.894Z,100587.63
2018-05-29T09:08:47.178Z,100582.38
2018-05-29T09:11:15.471Z,100578.97
2018-05-29T09:13:43.762Z,100573.95
2018-05-29T09:16:12.065Z,100565.02
2018-05-29T09:18:40.347Z,100571.50
2018-05-29T09:21:08.655Z,100573.60
2018-05-29T09:23:36.945Z,100569.31
2018-05-29T09:26:05.311Z,100570.95
2018-05-29T09:28:34.339Z,100567.56
2018-05-29T09:31:02.615Z,100569.69
2018-05-29T09:33:30.914Z,100565.20
2018-05-29T09:35:59.217Z,100562.74
2018-05-29T09:38:27.604Z,100560.79
2018-05-29T09:40:55.886Z,100557.91
2018-05-29T09:43:24.195Z,100558.78
2018-05-29T09:45:52.571Z,100554.20
2018-05-29T09:48:20.825Z,100555.96
2018-05-29T09:50:49.115Z,100555.69
2018-05-29T09:53:17.406Z,100549.96
2018-05-29T09:55:45.749Z,100548.36
2018-05-29T09:58:14.026Z,100545.87
2018-05-29T10:00:42.335Z,100540.30
2018-05-29T10:03:10.619Z,100539.75
2018-05-29T10:05:38.917Z,100535.33
2018-05-29T10:08:08.762Z,100536.50
2018-05-29T10:10:37.182Z,100538.44
2018-05-29T10:13:05.468Z,100545.12
2018-05-29T10:15:33.776Z,100541.25
2018-05-29T10:18:02.058Z,100547.23
2018-05-29T10:20:30.783Z,100537.28
2018-05-29T10:22:59.062Z,100545.47
2018-05-29T10:25:27.354Z,100536.81
2018-05-29T10:27:55.646Z,100534.27
2018-05-29T10:30:23.942Z,100533.74
2018-05-29T10:32:52.239Z,100532.67
2018-05-29T10:35:20.538Z,100531.24
2018-05-29T10:37:48.837Z,100530.83
2018-05-29T10:40:17.124Z,100524.98
2018-05-29T10:42:45.410Z,100526.61
2018-05-29T10:45:13.710Z,100524.43
2018-05-29T10:47:42.362Z,100514.36
2018-05-29T10:50:10.645Z,100513.18
2018-05-29T10:52:38.925Z,100510.55
2018-05-29T10:55:07.437Z,100509.64
2018-05-29T10:57:35.915Z,100516.08
2018-05-29T11:00:04.206Z,100513.17
2018-05-29T11:02:32.506Z,100514.64
2018-05-29T11:05:00.830Z,100507.73
2018-05-29T11:07:29.127Z,100509.98
2018-05-29T11:09:59.794Z,100511.75
2018-05-29T11:12:28.837Z,100505.68
2018-05-29T11:14:57.324Z,100507.78
2018-05-29T11:17:25.704Z,100506.73
2018-05-29T11:19:53.990Z,100504.70
2018-05-29T11:22:22.519Z,100501.49
2018-05-29T11:24:50.786Z,100499.09
2018-05-29T11:27:19.078Z,100494.58
2018-05-29T11:29:47.723Z,100494.20
2018-05-29T11:32:16.650Z,100491.88
2018-05-29T11:34:44.996Z,100470.25
2018-05-29T11:37:13.376Z,100475.22
2018-05-29T11:39:42.493Z,100472.33
2018-05-29T11:42:11.819Z,100473.95
2018-05-29T11:44:40.298Z,100452.63
2018-05-29T11:47:08.719Z,100445.59
2018-05-29T11:49:37.780Z,100451.70
2018-05-29T11:52:06.254Z,100445.17
2018-05-29T11:54:34.616Z,100440.95
2018-05-29T11:57:03.100Z,100437.74
2018-05-29T11:59:31.383Z,100439.11
2018-05-29T12:01:59.675Z,100432.48
2018-05-29T12:04:28.264Z,100426.57
2018-05-29T12:06:56.591Z,100418.98
2018-05-29T12:09:24.917Z,100416.90
2018-05-29T12:12:05.053Z,100403.11
2018-05-29T12:14:33.333Z,100403.72
2018-05-29T12:17:01.618Z,100406.48
2018-05-29T12:19:29.917Z,100401.78
2018-05-29T12:21:58.207Z,100404.97
2018-05-29T12:24:26.494Z,100409.72
2018-05-29T12:26:58.907Z,100410.60
2018-05-29T12:29:27.190Z,100416.73
2018-05-29T12:31:55.622Z,100415.48
2018-05-29T12:34:23.973Z,100413.58
2018-05-29T12:36:52.206Z,100405.56
2018-05-29T12:39:20.494Z,100404.50
2018-05-29T12:41:48.778Z,100397.66
2018-05-29T12:44:17.073Z,100396.53
2018-05-29T12:46:45.423Z,100393.85
2018-05-29T12:49:13.787Z,100392.50
2018-05-29T12:51:42.117Z,100393.47
2018-05-29T12:54:10.405Z,100392.59
2018-05-29T12:56:38.766Z,100400.97
2018-05-29T12:59:07.089Z,100394.81
2018-05-29T13:01:35.350Z,100404.03
2018-05-29T13:04:03.653Z,100400.02
2018-05-29T13:06:31.939Z,100408.50
2018-05-29T13:09:00.218Z,100410.92
2018-05-29T13:11:28.520Z,100420.77
2018-05-29T13:13:56.830Z,100417.03
2018-05-29T13:16:25.114Z,100417.23
2018-05-29T13:18:53.404Z,100417.70
2018-05-29T13:21:21.683Z,100410.48
2018-05-29T13:23:49.969Z,100415.41
2018-05-29T13:26:18.254Z,100412.79
2018-05-29T13:28:46.542Z,100410.52
2018-05-29T13:31:16.082Z,100410.03
2018-05-29T13:33:44.371Z,100415.33
2018-05-29T13:36:12.650Z,100422.50
2018-05-29T13:38:41.238Z,100423.71
2018-05-29T13:41:09.698Z,100436.34
2018-05-29T13:43:37.987Z,100440.56
2018-05-29T13:46:10.276Z,100447.10
2018-05-29T13:48:38.572Z,100448.39
2018-05-29T13:51:06.882Z,100453.63
2018-05-29T13:53:35.167Z,100459.09
2018-05-29T13:56:03.474Z,100452.34
2018-05-29T13:58:33.751Z,100458.36
2018-05-29T14:01:02.118Z,100460.39
2018-05-29T14:03:30.399Z,100467.41
2018-05-29T14:05:58.690Z,100471.84
2018-05-29T14:08:26.978Z,100507.81
2018-05-29T14:10:55.259Z,100507.08
2018-05-29T14:13:23.551Z,100506.35
2018-05-29T14:15:51.822Z,100507.52
2018-05-29T14:18:20.114Z,100506.56
2018-05-29T14:20:52.030Z,100503.86
2018-05-29T14:23:20.344Z,100499.13
2018-05-29T14:25:48.631Z,100503.42
2018-05-29T14:28:16.911Z,100507.20
2018-05-29T14:30:45.206Z,100506.11
2018-05-29T14:33:13.488Z,100503.55
2018-05-29T14:35:41.762Z,100498.14
2018-05-29T14:38:10.037Z,100499.00
2018-05-29T14:40:38.332Z,100501.53
2018-05-29T14:43:06.613Z,100507.85
2018-05-29T14:45:34.956Z,100507.73
2018-05-29T14:48:03.223Z,100500.72
2018-05-29T14:50:31.605Z,100503.43
2018-05-29T14:52:59.883Z,100508.37
2018-05-29T14:55:28.158Z,100512.75
2018-05-29T14:57:56.434Z,100513.02
2018-05-29T15:00:24.725Z,100516.14
2018-05-29T15:02:53.012Z,100510.94
2018-05-29T15:05:21.411Z,100505.95
2018-05-29T15:07:49.698Z,100512.16
2018-05-29T15:10:17.966Z,100512.05
2018-05-29T15:12:46.258Z,100502.42
2018-05-29T15:15:14.554Z,100499.69
2018-05-29T15:17:42.831Z,100512.16
2018-05-29T15:20:11.139Z,100500.36
2018-05-29T15:22:39.406Z,100508.81
2018-05-29T15:25:07.702Z,100512.73
2018-05-29T15:27:35.969Z,100517.59
2018-05-29T15:30:04.265Z,100515.05
2018-05-29T15:32:32.534Z,100529.90
2018-05-29T15:35:00.819Z,100533.71
2018-05-29T15:37:29.101Z,100542.37
2018-05-29T15:39:57.402Z,100539.51
2018-05-29T15:42:25.848Z,100542.20
2018-05-29T15:44:54.098Z,100548.27
2018-05-29T15:47:22.426Z,100556.23
2018-05-29T15:49:50.702Z,100562.75
2018-05-29T15:52:18.990Z,100566.06
2018-05-29T15:54:47.368Z,100573.11
2018-05-29T15:57:15.622Z,100571.54
2018-05-29T15:59:43.938Z,100579.73
2018-05-29T16:02:12.214Z,100570.64
2018-05-29T16:04:40.489Z,100584.28
2018-05-29T16:07:08.778Z,100590.33
2018-05-29T16:09:37.084Z,100592.19
2018-05-29T16:12:05.392Z,100592.62
2018-05-29T16:14:33.674Z,100602.64
2018-05-29T16:17:01.943Z,100598.75
2018-05-29T16:19:30.232Z,100593.02
2018-05-29T16:21:58.506Z,100592.66
2018-05-29T16:24:26.817Z,100595.38
2018-05-29T16:26:55.088Z,100591.08
2018-05-29T16:29:23.366Z,100591.39
2018-05-29T16:31:51.655Z,100585.75
2018-05-29T16:34:19.936Z,100592.19
2018-05-29T16:36:48.224Z,100589.11
2018-05-29T16:39:20.936Z,100585.37
2018-05-29T16:41:49.211Z,100588.37
2018-05-29T16:44:18.436Z,100584.00
2018-05-29T16:46:46.733Z,100575.70
2018-05-29T16:49:15.006Z,100575.59
2018-05-29T16:51:43.545Z,100566.52
2018-05-29T16:54:11.835Z,100560.82
2018-05-29T16:56:40.321Z,100562.36
2018-05-29T16:59:08.616Z,100551.34
2018-05-29T17:01:36.890Z,100556.95
2018-05-29T17:04:05.180Z,100547.58
2018-05-29T17:06:33.453Z,100532.56
2018-05-29T17:09:01.747Z,100541.39
2018-05-29T17:11:30.105Z,100515.97
2018-05-29T17:13:58.417Z,100507.71
2018-05-29T17:16:26.693Z,100498.03
2018-05-29T17:18:54.986Z,100480.50
2018-05-29T17:21:23.258Z,100480.87
2018-05-29T17:23:51.535Z,100477.94
2018-05-29T17:26:19.838Z,100478.16
2018-05-29T17:28:48.097Z,100485.08
2018-05-29T17:31:16.393Z,100482.89
2018-05-29T17:33:44.658Z,100483.52
2018-05-29T17:36:12.950Z,100492.84
2018-05-29T17:38:41.244Z,100495.23
2018-05-29T17:41:09.529Z,100491.28
2018-05-29T17:43:37.811Z,100486.66
2018-05-29T17:46:06.093Z,100485.22
2018-05-29T17:48:34.434Z,100470.13
2018-05-29T17:51:04.741Z,100473.61
2018-05-29T17:53:33.634Z,100479.28
2018-05-29T17:56:01.960Z,100482.33
2018-05-29T17:58:30.219Z,100478.11
2018-05-29T18:00:58.512Z,100487.59
2018-05-29T18:03:26.790Z,100477.28
2018-05-29T18:05:55.062Z,100487.69
2018-05-29T18:08:23.351Z,100488.63
2018-05-29T18:10:51.639Z,100495.61
2018-05-29T18:13:22.514Z,100502.02
2018-05-29T18:15:52.721Z,100511.42
2018-05-29T18:18:21.005Z,100523.46
2018-05-29T18:20:49.337Z,100527.84
2018-05-29T18:23:17.610Z,100539.20
2018-05-29T18:25:45.889Z,100538.21
2018-05-29T18:28:14.167Z,100545.24
2018-05-29T18:30:43.369Z,100545.16
2018-05-29T18:33:11.678Z,100548.67
2018-05-29T18:35:39.965Z,100554.80
2018-05-29T18:38:08.279Z,100562.58
2018-05-29T18:40:36.564Z,100579.86
2018-05-29T18:43:04.862Z,100593.47
2018-05-29T18:45:33.150Z,100595.75
2018-05-29T18:48:01.430Z,100587.08
2018-05-29T18:50:29.713Z,100592.90
2018-05-29T18:52:58.026Z,100604.16
2018-05-29T18:55:26.302Z,100608.23
2018-05-29T18:57:54.644Z,100606.55
2018-05-29T19:00:22.907Z,100599.49
2018-05-29T19:02:51.190Z,100600.09
2018-05-29T19:05:19.464Z,100603.70
2018-05-29T19:07:47.763Z,100613.95
2018-05-29T19:10:16.037Z,100616.53
2018-05-29T19:12:44.314Z,100622.80
2018-05-29T19:15:12.609Z,100633.55
2018-05-29T19:17:41.551Z,100635.12
2018-05-29T19:20:09.837Z,100636.79
2018-05-29T19:22:38.144Z,100626.97
2018-05-29T19:25:06.414Z,100630.64
2018-05-29T19:27:34.696Z,100627.27
2018-05-29T19:30:02.985Z,100630.88
2018-05-29T19:32:31.303Z,100632.91
2018-05-29T19:34:59.575Z,100635.05
2018-05-29T19:37:27.877Z,100632.21
2018-05-29T19:39:56.167Z,100628.66
2018-05-29T19:42:24.457Z,100629.16
2018-05-29T19:44:52.819Z,100632.63
2018-05-29T19:47:21.054Z,100632.70
2018-05-29T19:49:49.334Z,100631.10
2018-05-29T19:52:17.642Z,100634.59
2018-05-29T19:54:45.926Z,100632.81
2018-05-29T19:57:14.198Z,100634.52
2018-05-29T19:59:44.334Z,100639.30
2018-05-29T20:02:13.550Z,100649.12
2018-05-29T20:04:41.850Z,100646.98
2018-05-29T20:07:10.148Z,100640.69
2018-05-29T20:09:38.427Z,100635.52
2018-05-29T20:12:06.739Z,100631.80
2018-05-29T20:14:35.022Z,100639.31
2018-05-29T20:17:03.294Z,100634.36
2018-05-29T20:19:31.594Z,100634.07
2018-05-29T20:21:59.886Z,100629.56
2018-05-29T20:24:28.167Z,100628.39
2018-05-29T20:26:56.465Z,100623.66
2018-05-29T20:29:24.749Z,100619.23
2018-05-29T20:31:53.026Z,100623.95
2018-05-29T20:34:21.403Z,100625.67
2018-05-29T20:36:49.717Z,100625.64
2018-05-29T20:39:17.971Z,100619.07
2018-05-29T20:41:47.153Z,100615.48
2018-05-29T20:44:15.435Z,100611.72
2018-05-29T20:46:43.714Z,100613.17
2018-05-29T20:49:12.023Z,100612.44
2018-05-29T20:51:40.306Z,100615.81
2018-05-29T20:54:08.611Z,100614.27
2018-05-29T20:56:37.157Z,100612.64
2018-05-29T20:59:05.438Z,100600.83
2018-05-29T21:01:33.725Z,100590.37
2018-05-29T21:04:02.013Z,100583.31
2018-05-29T21:06:30.298Z,100582.83
2018-05-29T21:08:58.583Z,100585.84
2018-05-29T21:11:26.878Z,100584.12
2018-05-29T21:13:55.180Z,100591.57
2018-05-29T21:16:23.445Z,100583.91
2018-05-29T21:18:51.729Z,100579.95
2018-05-29T21:21:20.013Z,100584.58
2018-05-29T21:23:48.294Z,100591.08
2018-05-29T21:26:16.593Z,100580.44
2018-05-29T21:28:44.877Z,100583.27
2018-05-29T21:31:13.154Z,100582.07
2018-05-29T21:33:41.479Z,100576.88
2018-05-29T21:36:09.763Z,100578.89
2018-05-29T21:38:38.025Z,100582.64
2018-05-29T21:41:06.322Z,100587.20
2018-05-29T21:43:34.606Z,100585.41
2018-05-29T21:46:02.898Z,100591.69
2018-05-29T21:48:31.199Z,100586.45
2018-05-29T21:50:59.473Z,100592.67
2018-05-29T21:53:27.758Z,100594.38
2018-05-29T21:55:56.053Z,100585.30
2018-05-29T21:58:24.329Z,100595.03
2018-05-29T22:00:52.617Z,100593.17
2018-05-29T22:03:20.913Z,100595.64
2018-05-29T22:05:49.194Z,100596.30
2018-05-29T22:08:17.473Z,100596.44
2018-05-29T22:10:45.778Z,100599.66
2018-05-29T22:13:14.062Z,100601.91
2018-05-29T22:15:42.341Z,100615.43
2018-05-29T22:18:10.641Z,100625.45
2018-05-29T22:20:38.918Z,100626.52
2018-05-29T22:23:07.197Z,100631.34
2018-05-29T22:25:35.489Z,100632.02
2018-05-29T22:28:03.778Z,100640.48
2018-05-29T22:30:32.089Z,100639.28
2018-05-29T22:33:00.370Z,100638.09
2018-05-29T22:35:28.651Z,100645.98
2018-05-29T22:37:56.938Z,100640.05
2018-05-29T22:40:25.234Z,100638.71
2018-05-29T22:42:53.514Z,100633.91
2018-05-29T22:45:21.794Z,100639.94
2018-05-29T22:47:50.102Z,100633.45
2018-05-29T22:50:18.361Z,100636.28
2018-05-29T22:52:46.642Z,100640.58
2018-05-29T22:55:14.942Z,100638.36
2018-05-29T22:57:43.225Z,100645.45
2018-05-29T23:00:11.515Z,100645.05
2018-05-29T23:02:39.550Z,100642.06
2018-05-29T23:05:07.829Z,100644.34
2018-05-29T23:07:36.117Z,100639.48
2018-05-29T23:10:04.412Z,100639.63
2018-05-29T23:12:32.702Z,100651.03
2018-05-29T23:17:28.330Z,100649.14
2018-05-29T23:19:56.615Z,100659.02
2018-05-29T23:22:24.891Z,100662.53
2018-05-29T23:24:53.198Z,100660.55
2018-05-29T23:27:21.474Z,100668.09
2018-05-29T23:29:49.756Z,100663.53
2018-05-29T23:32:18.054Z,100663.91
2018-05-29T23:34:46.326Z,100663.11
2018-05-29T23:37:14.610Z,100662.48
2018-05-29T23:39:42.921Z,100657.45
2018-05-29T23:42:11.209Z,100653.51
2018-05-29T23:44:39.485Z,100657.47
2018-05-29T23:47:08.061Z,100653.05
2018-05-29T23:49:36.334Z,100656.27
2018-05-29T23:52:04.615Z,100653.45
2018-05-29T23:54:32.904Z,100654.31
2018-05-29T23:57:01.221Z,100654.08
2018-05-29T23:59:29.500Z,100655.39
